sensor_id;sensor_type;location;lat;lon;timestamp;P1;durP1;ratioP1;P2;durP2;ratioP2
45254;SDS011;30989;52.078;21.014;2022-12-07T00:00:53;33.25;;;15.73;;
45254;SDS011;30989;52.078;21.014;2022-12-07T00:03:19;30.58;;;14.93;;
45254;SDS011;30989;52.078;21.014;2022-12-07T00:05:45;31.85;;;14.88;;
45254;SDS011;30989;52.078;21.014;2022-12-07T00:08:10;31.15;;;14.20;;
45254;SDS011;30989;52.078;21.014;2022-12-07T00:10:36;31.13;;;14.93;;
45254;SDS011;30989;52.078;21.014;2022-12-07T00:13:01;36.55;;;15.07;;
45254;SDS011;30989;52.078;21.014;2022-12-07T00:15:27;33.35;;;16.13;;
45254;SDS011;30989;52.078;21.014;2022-12-07T00:17:52;31.33;;;15.20;;
45254;SDS011;30989;52.078;21.014;2022-12-07T00:20:18;33.42;;;15.88;;
45254;SDS011;30989;52.078;21.014;2022-12-07T00:22:43;29.90;;;14.82;;
45254;SDS011;30989;52.078;21.014;2022-12-07T00:25:09;28.40;;;14.70;;
45254;SDS011;30989;52.078;21.014;2022-12-07T00:27:34;29.73;;;14.15;;
45254;SDS011;30989;52.078;21.014;2022-12-07T00:30:00;36.08;;;17.08;;
45254;SDS011;30989;52.078;21.014;2022-12-07T00:32:25;30.52;;;15.38;;
45254;SDS011;30989;52.078;21.014;2022-12-07T00:34:51;28.35;;;14.60;;
45254;SDS011;30989;52.078;21.014;2022-12-07T00:37:17;34.45;;;14.20;;
45254;SDS011;30989;52.078;21.014;2022-12-07T00:39:42;29.27;;;14.30;;
45254;SDS011;30989;52.078;21.014;2022-12-07T00:42:07;30.90;;;15.82;;
45254;SDS011;30989;52.078;21.014;2022-12-07T00:44:33;34.78;;;15.40;;
45254;SDS011;30989;52.078;21.014;2022-12-07T00:46:58;29.25;;;13.70;;
45254;SDS011;30989;52.078;21.014;2022-12-07T00:49:24;30.10;;;15.40;;
45254;SDS011;30989;52.078;21.014;2022-12-07T00:51:49;28.83;;;13.77;;
45254;SDS011;30989;52.078;21.014;2022-12-07T00:54:15;26.55;;;12.25;;
45254;SDS011;30989;52.078;21.014;2022-12-07T00:56:40;28.88;;;12.88;;
45254;SDS011;30989;52.078;21.014;2022-12-07T00:59:06;29.95;;;12.80;;
45254;SDS011;30989;52.078;21.014;2022-12-07T01:01:32;28.23;;;12.48;;
45254;SDS011;30989;52.078;21.014;2022-12-07T01:04:00;23.58;;;12.00;;
45254;SDS011;30989;52.078;21.014;2022-12-07T01:06:26;26.58;;;11.68;;
45254;SDS011;30989;52.078;21.014;2022-12-07T01:08:52;24.38;;;11.95;;
45254;SDS011;30989;52.078;21.014;2022-12-07T01:11:22;20.25;;;10.88;;
45254;SDS011;30989;52.078;21.014;2022-12-07T01:13:50;24.90;;;11.57;;
45254;SDS011;30989;52.078;21.014;2022-12-07T01:16:17;24.33;;;11.02;;
45254;SDS011;30989;52.078;21.014;2022-12-07T01:18:45;22.10;;;9.73;;
45254;SDS011;30989;52.078;21.014;2022-12-07T01:21:14;20.92;;;10.25;;
45254;SDS011;30989;52.078;21.014;2022-12-07T01:23:44;25.88;;;11.15;;
45254;SDS011;30989;52.078;21.014;2022-12-07T01:26:11;22.35;;;10.23;;
45254;SDS011;30989;52.078;21.014;2022-12-07T01:28:38;25.02;;;10.43;;
45254;SDS011;30989;52.078;21.014;2022-12-07T01:31:05;20.27;;;9.23;;
45254;SDS011;30989;52.078;21.014;2022-12-07T01:33:36;19.08;;;9.35;;
45254;SDS011;30989;52.078;21.014;2022-12-07T01:36:04;21.33;;;9.52;;
45254;SDS011;30989;52.078;21.014;2022-12-07T01:38:43;22.60;;;10.48;;
45254;SDS011;30989;52.078;21.014;2022-12-07T01:41:10;23.83;;;10.02;;
45254;SDS011;30989;52.078;21.014;2022-12-07T01:43:36;22.13;;;9.05;;
45254;SDS011;30989;52.078;21.014;2022-12-07T01:46:02;17.77;;;7.45;;
45254;SDS011;30989;52.078;21.014;2022-12-07T01:48:32;17.70;;;8.68;;
45254;SDS011;30989;52.078;21.014;2022-12-07T01:51:04;21.95;;;9.02;;
45254;SDS011;30989;52.078;21.014;2022-12-07T01:53:33;21.33;;;9.10;;
45254;SDS011;30989;52.078;21.014;2022-12-07T01:56:02;18.30;;;10.07;;
45254;SDS011;30989;52.078;21.014;2022-12-07T01:58:28;14.48;;;8.18;;
45254;SDS011;30989;52.078;21.014;2022-12-07T02:00:54;15.30;;;7.22;;
45254;SDS011;30989;52.078;21.014;2022-12-07T02:03:22;18.80;;;8.18;;
45254;SDS011;30989;52.078;21.014;2022-12-07T02:05:57;15.70;;;8.27;;
45254;SDS011;30989;52.078;21.014;2022-12-07T02:08:25;15.43;;;7.40;;
45254;SDS011;30989;52.078;21.014;2022-12-07T02:10:51;20.35;;;7.93;;
45254;SDS011;30989;52.078;21.014;2022-12-07T02:13:21;16.20;;;7.28;;
45254;SDS011;30989;52.078;21.014;2022-12-07T02:21:42;17.75;;;8.43;;
45254;SDS011;30989;52.078;21.014;2022-12-07T02:32:39;12.93;;;6.25;;
45254;SDS011;30989;52.078;21.014;2022-12-07T02:43:03;12.40;;;5.43;;
45254;SDS011;30989;52.078;21.014;2022-12-07T02:45:34;9.95;;;5.18;;
45254;SDS011;30989;52.078;21.014;2022-12-07T02:48:02;11.40;;;5.78;;
45254;SDS011;30989;52.078;21.014;2022-12-07T02:50:30;11.38;;;5.93;;
45254;SDS011;30989;52.078;21.014;2022-12-07T02:52:55;11.85;;;5.55;;
45254;SDS011;30989;52.078;21.014;2022-12-07T02:55:23;9.68;;;4.78;;
45254;SDS011;30989;52.078;21.014;2022-12-07T02:57:57;11.55;;;6.10;;
45254;SDS011;30989;52.078;21.014;2022-12-07T03:01:00;10.43;;;5.63;;
45254;SDS011;30989;52.078;21.014;2022-12-07T03:03:34;12.55;;;5.43;;
45254;SDS011;30989;52.078;21.014;2022-12-07T03:06:05;9.63;;;5.53;;
45254;SDS011;30989;52.078;21.014;2022-12-07T03:08:52;11.68;;;5.78;;
45254;SDS011;30989;52.078;21.014;2022-12-07T03:16:52;9.50;;;4.75;;
45254;SDS011;30989;52.078;21.014;2022-12-07T03:19:24;7.13;;;4.18;;
45254;SDS011;30989;52.078;21.014;2022-12-07T03:21:56;11.32;;;5.80;;
45254;SDS011;30989;52.078;21.014;2022-12-07T03:24:29;8.90;;;4.40;;
45254;SDS011;30989;52.078;21.014;2022-12-07T03:27:06;8.68;;;4.68;;
45254;SDS011;30989;52.078;21.014;2022-12-07T03:29:38;7.75;;;4.20;;
45254;SDS011;30989;52.078;21.014;2022-12-07T03:40:48;9.27;;;4.38;;
45254;SDS011;30989;52.078;21.014;2022-12-07T03:43:19;9.40;;;4.78;;
45254;SDS011;30989;52.078;21.014;2022-12-07T03:57:26;7.72;;;4.15;;
45254;SDS011;30989;52.078;21.014;2022-12-07T03:59:54;9.95;;;4.90;;
45254;SDS011;30989;52.078;21.014;2022-12-07T04:02:21;10.65;;;5.55;;
45254;SDS011;30989;52.078;21.014;2022-12-07T04:04:48;11.25;;;5.45;;
45254;SDS011;30989;52.078;21.014;2022-12-07T04:07:14;13.75;;;5.90;;
45254;SDS011;30989;52.078;21.014;2022-12-07T04:09:40;12.43;;;6.25;;
45254;SDS011;30989;52.078;21.014;2022-12-07T04:12:05;12.85;;;5.60;;
45254;SDS011;30989;52.078;21.014;2022-12-07T04:14:31;10.18;;;5.45;;
45254;SDS011;30989;52.078;21.014;2022-12-07T04:16:57;9.45;;;5.57;;
45254;SDS011;30989;52.078;21.014;2022-12-07T04:19:33;12.07;;;7.00;;
45254;SDS011;30989;52.078;21.014;2022-12-07T04:22:00;12.27;;;5.85;;
45254;SDS011;30989;52.078;21.014;2022-12-07T04:24:27;9.93;;;5.03;;
45254;SDS011;30989;52.078;21.014;2022-12-07T04:26:53;11.15;;;5.25;;
45254;SDS011;30989;52.078;21.014;2022-12-07T04:29:19;9.70;;;5.18;;
45254;SDS011;30989;52.078;21.014;2022-12-07T04:31:45;11.63;;;5.40;;
45254;SDS011;30989;52.078;21.014;2022-12-07T04:34:12;12.15;;;5.82;;
45254;SDS011;30989;52.078;21.014;2022-12-07T04:36:39;9.88;;;5.45;;
45254;SDS011;30989;52.078;21.014;2022-12-07T04:39:05;10.27;;;5.78;;
45254;SDS011;30989;52.078;21.014;2022-12-07T04:41:32;12.85;;;5.68;;
45254;SDS011;30989;52.078;21.014;2022-12-07T04:44:02;8.88;;;4.78;;
45254;SDS011;30989;52.078;21.014;2022-12-07T04:46:30;8.23;;;3.88;;
45254;SDS011;30989;52.078;21.014;2022-12-07T04:48:56;11.25;;;5.82;;
45254;SDS011;30989;52.078;21.014;2022-12-07T04:51:23;9.98;;;4.57;;
45254;SDS011;30989;52.078;21.014;2022-12-07T04:53:52;10.38;;;5.43;;
45254;SDS011;30989;52.078;21.014;2022-12-07T04:56:18;13.60;;;5.30;;
45254;SDS011;30989;52.078;21.014;2022-12-07T04:58:45;9.27;;;5.03;;
45254;SDS011;30989;52.078;21.014;2022-12-07T05:01:12;12.63;;;6.15;;
45254;SDS011;30989;52.078;21.014;2022-12-07T05:03:38;16.42;;;8.23;;
45254;SDS011;30989;52.078;21.014;2022-12-07T05:06:05;14.82;;;7.80;;
45254;SDS011;30989;52.078;21.014;2022-12-07T05:08:31;14.85;;;7.32;;
45254;SDS011;30989;52.078;21.014;2022-12-07T05:10:58;9.55;;;5.18;;
45254;SDS011;30989;52.078;21.014;2022-12-07T05:13:23;11.38;;;5.97;;
45254;SDS011;30989;52.078;21.014;2022-12-07T05:15:49;12.95;;;6.35;;
45254;SDS011;30989;52.078;21.014;2022-12-07T05:18:15;11.95;;;5.57;;
45254;SDS011;30989;52.078;21.014;2022-12-07T05:20:41;9.00;;;5.28;;
45254;SDS011;30989;52.078;21.014;2022-12-07T05:23:09;11.10;;;5.50;;
45254;SDS011;30989;52.078;21.014;2022-12-07T05:25:35;13.30;;;6.65;;
45254;SDS011;30989;52.078;21.014;2022-12-07T05:28:01;11.95;;;6.60;;
45254;SDS011;30989;52.078;21.014;2022-12-07T05:30:27;21.17;;;11.00;;
45254;SDS011;30989;52.078;21.014;2022-12-07T05:32:53;18.02;;;9.85;;
45254;SDS011;30989;52.078;21.014;2022-12-07T05:35:18;16.90;;;8.88;;
45254;SDS011;30989;52.078;21.014;2022-12-07T05:37:44;15.77;;;8.98;;
45254;SDS011;30989;52.078;21.014;2022-12-07T05:40:10;15.00;;;7.47;;
45254;SDS011;30989;52.078;21.014;2022-12-07T05:42:38;16.83;;;7.88;;
45254;SDS011;30989;52.078;21.014;2022-12-07T05:45:04;13.50;;;6.68;;
45254;SDS011;30989;52.078;21.014;2022-12-07T05:47:30;15.82;;;7.10;;
45254;SDS011;30989;52.078;21.014;2022-12-07T05:49:56;15.77;;;6.53;;
45254;SDS011;30989;52.078;21.014;2022-12-07T05:52:21;10.68;;;5.60;;
45254;SDS011;30989;52.078;21.014;2022-12-07T05:54:47;39.97;;;16.73;;
45254;SDS011;30989;52.078;21.014;2022-12-07T05:57:13;13.80;;;6.63;;
45254;SDS011;30989;52.078;21.014;2022-12-07T05:59:39;13.48;;;6.57;;
45254;SDS011;30989;52.078;21.014;2022-12-07T06:02:06;12.57;;;6.13;;
45254;SDS011;30989;52.078;21.014;2022-12-07T06:04:34;14.68;;;6.70;;
45254;SDS011;30989;52.078;21.014;2022-12-07T06:07:01;13.73;;;6.75;;
45254;SDS011;30989;52.078;21.014;2022-12-07T06:09:27;16.20;;;6.57;;
45254;SDS011;30989;52.078;21.014;2022-12-07T06:11:53;18.25;;;8.25;;
45254;SDS011;30989;52.078;21.014;2022-12-07T06:14:38;19.83;;;9.30;;
45254;SDS011;30989;52.078;21.014;2022-12-07T06:17:07;22.30;;;8.75;;
45254;SDS011;30989;52.078;21.014;2022-12-07T06:19:33;14.27;;;7.10;;
45254;SDS011;30989;52.078;21.014;2022-12-07T06:22:01;18.52;;;8.35;;
45254;SDS011;30989;52.078;21.014;2022-12-07T06:24:29;14.27;;;6.38;;
45254;SDS011;30989;52.078;21.014;2022-12-07T06:26:55;16.02;;;8.05;;
45254;SDS011;30989;52.078;21.014;2022-12-07T06:29:21;14.43;;;7.07;;
45254;SDS011;30989;52.078;21.014;2022-12-07T06:31:47;13.65;;;7.25;;
45254;SDS011;30989;52.078;21.014;2022-12-07T06:34:14;14.15;;;7.30;;
45254;SDS011;30989;52.078;21.014;2022-12-07T06:36:42;13.77;;;7.35;;
45254;SDS011;30989;52.078;21.014;2022-12-07T06:39:07;18.80;;;8.55;;
45254;SDS011;30989;52.078;21.014;2022-12-07T06:41:36;18.60;;;8.50;;
45254;SDS011;30989;52.078;21.014;2022-12-07T06:44:03;20.50;;;9.18;;
45254;SDS011;30989;52.078;21.014;2022-12-07T06:46:29;17.67;;;9.10;;
45254;SDS011;30989;52.078;21.014;2022-12-07T06:48:55;18.92;;;8.77;;
45254;SDS011;30989;52.078;21.014;2022-12-07T06:51:20;15.43;;;8.38;;
45254;SDS011;30989;52.078;21.014;2022-12-07T06:53:46;18.40;;;9.45;;
45254;SDS011;30989;52.078;21.014;2022-12-07T06:56:12;20.38;;;8.98;;
45254;SDS011;30989;52.078;21.014;2022-12-07T06:58:38;18.10;;;9.73;;
45254;SDS011;30989;52.078;21.014;2022-12-07T07:01:08;21.15;;;10.48;;
45254;SDS011;30989;52.078;21.014;2022-12-07T07:03:37;19.55;;;9.48;;
45254;SDS011;30989;52.078;21.014;2022-12-07T07:06:04;29.98;;;13.65;;
45254;SDS011;30989;52.078;21.014;2022-12-07T07:08:30;20.50;;;9.80;;
45254;SDS011;30989;52.078;21.014;2022-12-07T07:10:56;14.80;;;7.90;;
45254;SDS011;30989;52.078;21.014;2022-12-07T07:13:21;18.50;;;8.52;;
45254;SDS011;30989;52.078;21.014;2022-12-07T07:15:47;12.85;;;6.45;;
45254;SDS011;30989;52.078;21.014;2022-12-07T07:18:12;13.00;;;5.90;;
45254;SDS011;30989;52.078;21.014;2022-12-07T07:20:38;18.52;;;8.05;;
45254;SDS011;30989;52.078;21.014;2022-12-07T07:23:04;14.68;;;6.93;;
45254;SDS011;30989;52.078;21.014;2022-12-07T07:25:29;14.90;;;6.78;;
45254;SDS011;30989;52.078;21.014;2022-12-07T07:27:55;13.10;;;6.05;;
45254;SDS011;30989;52.078;21.014;2022-12-07T07:30:20;14.10;;;7.15;;
45254;SDS011;30989;52.078;21.014;2022-12-07T07:32:46;14.68;;;6.43;;
45254;SDS011;30989;52.078;21.014;2022-12-07T07:35:11;13.95;;;6.82;;
45254;SDS011;30989;52.078;21.014;2022-12-07T07:37:39;15.63;;;6.70;;
45254;SDS011;30989;52.078;21.014;2022-12-07T07:40:05;15.38;;;6.18;;
45254;SDS011;30989;52.078;21.014;2022-12-07T07:42:31;10.60;;;5.60;;
45254;SDS011;30989;52.078;21.014;2022-12-07T07:44:56;12.05;;;5.25;;
45254;SDS011;30989;52.078;21.014;2022-12-07T07:47:22;10.38;;;5.43;;
45254;SDS011;30989;52.078;21.014;2022-12-07T07:49:47;8.85;;;5.40;;
45254;SDS011;30989;52.078;21.014;2022-12-07T07:52:13;13.15;;;5.50;;
45254;SDS011;30989;52.078;21.014;2022-12-07T07:54:38;9.07;;;5.03;;
45254;SDS011;30989;52.078;21.014;2022-12-07T07:57:04;8.85;;;5.07;;
45254;SDS011;30989;52.078;21.014;2022-12-07T07:59:29;11.20;;;5.45;;
45254;SDS011;30989;52.078;21.014;2022-12-07T08:01:55;10.23;;;5.32;;
45254;SDS011;30989;52.078;21.014;2022-12-07T08:04:20;11.00;;;5.45;;
45254;SDS011;30989;52.078;21.014;2022-12-07T08:06:46;13.13;;;5.50;;
45254;SDS011;30989;52.078;21.014;2022-12-07T08:09:11;14.35;;;5.20;;
45254;SDS011;30989;52.078;21.014;2022-12-07T08:11:37;14.50;;;5.93;;
45254;SDS011;30989;52.078;21.014;2022-12-07T08:14:03;15.13;;;8.23;;
45254;SDS011;30989;52.078;21.014;2022-12-07T08:16:28;11.75;;;6.82;;
45254;SDS011;30989;52.078;21.014;2022-12-07T08:18:54;14.90;;;6.53;;
45254;SDS011;30989;52.078;21.014;2022-12-07T08:21:19;13.80;;;7.15;;
45254;SDS011;30989;52.078;21.014;2022-12-07T08:23:45;13.57;;;6.38;;
45254;SDS011;30989;52.078;21.014;2022-12-07T08:26:12;11.35;;;5.50;;
45254;SDS011;30989;52.078;21.014;2022-12-07T08:28:39;12.13;;;5.97;;
45254;SDS011;30989;52.078;21.014;2022-12-07T08:31:10;12.63;;;6.20;;
45254;SDS011;30989;52.078;21.014;2022-12-07T08:33:38;17.50;;;6.45;;
45254;SDS011;30989;52.078;21.014;2022-12-07T08:36:04;11.30;;;5.80;;
45254;SDS011;30989;52.078;21.014;2022-12-07T08:38:33;11.35;;;4.88;;
45254;SDS011;30989;52.078;21.014;2022-12-07T08:41:00;14.07;;;6.30;;
45254;SDS011;30989;52.078;21.014;2022-12-07T08:43:25;14.25;;;6.43;;
45254;SDS011;30989;52.078;21.014;2022-12-07T08:45:54;15.75;;;7.13;;
45254;SDS011;30989;52.078;21.014;2022-12-07T08:48:30;11.88;;;5.95;;
45254;SDS011;30989;52.078;21.014;2022-12-07T08:50:57;12.52;;;5.95;;
45254;SDS011;30989;52.078;21.014;2022-12-07T08:53:23;14.10;;;6.75;;
45254;SDS011;30989;52.078;21.014;2022-12-07T08:55:48;15.77;;;6.72;;
45254;SDS011;30989;52.078;21.014;2022-12-07T08:58:14;12.55;;;6.20;;
45254;SDS011;30989;52.078;21.014;2022-12-07T09:00:40;15.82;;;7.28;;
45254;SDS011;30989;52.078;21.014;2022-12-07T09:03:05;14.45;;;7.53;;
45254;SDS011;30989;52.078;21.014;2022-12-07T09:05:32;14.70;;;7.30;;
45254;SDS011;30989;52.078;21.014;2022-12-07T09:07:59;16.05;;;6.97;;
45254;SDS011;30989;52.078;21.014;2022-12-07T09:10:26;17.63;;;7.53;;
45254;SDS011;30989;52.078;21.014;2022-12-07T09:12:52;12.93;;;6.78;;
45254;SDS011;30989;52.078;21.014;2022-12-07T09:15:17;15.93;;;8.20;;
45254;SDS011;30989;52.078;21.014;2022-12-07T09:17:43;15.68;;;7.82;;
45254;SDS011;30989;52.078;21.014;2022-12-07T09:20:09;14.15;;;7.18;;
45254;SDS011;30989;52.078;21.014;2022-12-07T09:22:35;20.92;;;7.05;;
45254;SDS011;30989;52.078;21.014;2022-12-07T09:25:00;15.77;;;7.25;;
45254;SDS011;30989;52.078;21.014;2022-12-07T09:27:27;17.90;;;8.52;;
45254;SDS011;30989;52.078;21.014;2022-12-07T09:29:53;15.77;;;7.15;;
45254;SDS011;30989;52.078;21.014;2022-12-07T09:32:19;16.95;;;7.38;;
45254;SDS011;30989;52.078;21.014;2022-12-07T09:34:45;19.77;;;7.80;;
45254;SDS011;30989;52.078;21.014;2022-12-07T09:37:10;17.60;;;7.70;;
45254;SDS011;30989;52.078;21.014;2022-12-07T09:39:39;19.73;;;7.55;;
45254;SDS011;30989;52.078;21.014;2022-12-07T09:42:05;22.75;;;8.88;;
45254;SDS011;30989;52.078;21.014;2022-12-07T09:44:32;18.98;;;8.70;;
45254;SDS011;30989;52.078;21.014;2022-12-07T09:46:58;21.35;;;8.27;;
45254;SDS011;30989;52.078;21.014;2022-12-07T09:49:25;17.27;;;7.40;;
45254;SDS011;30989;52.078;21.014;2022-12-07T09:52:39;18.40;;;8.52;;
45254;SDS011;30989;52.078;21.014;2022-12-07T09:54:49;16.77;;;7.57;;
45254;SDS011;30989;52.078;21.014;2022-12-07T09:57:16;20.13;;;8.20;;
45254;SDS011;30989;52.078;21.014;2022-12-07T09:59:42;17.27;;;8.15;;
45254;SDS011;30989;52.078;21.014;2022-12-07T10:02:22;16.30;;;7.70;;
45254;SDS011;30989;52.078;21.014;2022-12-07T10:04:49;21.70;;;8.80;;
45254;SDS011;30989;52.078;21.014;2022-12-07T10:07:14;20.92;;;8.25;;
45254;SDS011;30989;52.078;21.014;2022-12-07T10:09:40;14.65;;;6.85;;
45254;SDS011;30989;52.078;21.014;2022-12-07T10:12:06;15.60;;;7.70;;
45254;SDS011;30989;52.078;21.014;2022-12-07T10:14:38;14.77;;;7.63;;
45254;SDS011;30989;52.078;21.014;2022-12-07T10:20:15;18.35;;;7.57;;
45254;SDS011;30989;52.078;21.014;2022-12-07T10:23:02;16.75;;;7.15;;
45254;SDS011;30989;52.078;21.014;2022-12-07T10:25:36;19.05;;;7.60;;
45254;SDS011;30989;52.078;21.014;2022-12-07T10:28:10;18.40;;;8.48;;
45254;SDS011;30989;52.078;21.014;2022-12-07T10:35:52;16.08;;;7.63;;
45254;SDS011;30989;52.078;21.014;2022-12-07T10:38:17;14.07;;;6.93;;
45254;SDS011;30989;52.078;21.014;2022-12-07T10:40:43;13.18;;;6.00;;
45254;SDS011;30989;52.078;21.014;2022-12-07T10:54:54;14.43;;;6.70;;
45254;SDS011;30989;52.078;21.014;2022-12-07T10:57:25;13.15;;;6.60;;
45254;SDS011;30989;52.078;21.014;2022-12-07T11:00:00;15.68;;;7.57;;
45254;SDS011;30989;52.078;21.014;2022-12-07T11:10:26;14.70;;;7.13;;
45254;SDS011;30989;52.078;21.014;2022-12-07T11:13:20;17.00;;;7.00;;
45254;SDS011;30989;52.078;21.014;2022-12-07T11:16:16;18.05;;;7.28;;
45254;SDS011;30989;52.078;21.014;2022-12-07T11:24:18;14.43;;;7.22;;
45254;SDS011;30989;52.078;21.014;2022-12-07T11:27:09;13.85;;;6.57;;
45254;SDS011;30989;52.078;21.014;2022-12-07T11:29:47;17.98;;;8.80;;
45254;SDS011;30989;52.078;21.014;2022-12-07T11:32:39;14.77;;;7.80;;
45254;SDS011;30989;52.078;21.014;2022-12-07T11:38:50;15.80;;;8.00;;
45254;SDS011;30989;52.078;21.014;2022-12-07T11:41:30;18.77;;;7.72;;
45254;SDS011;30989;52.078;21.014;2022-12-07T11:49:15;17.15;;;8.13;;
45254;SDS011;30989;52.078;21.014;2022-12-07T11:52:04;14.73;;;8.25;;
45254;SDS011;30989;52.078;21.014;2022-12-07T11:54:36;16.60;;;7.63;;
45254;SDS011;30989;52.078;21.014;2022-12-07T11:57:12;17.60;;;8.70;;
45254;SDS011;30989;52.078;21.014;2022-12-07T11:59:46;17.10;;;7.88;;
45254;SDS011;30989;52.078;21.014;2022-12-07T12:02:16;17.98;;;8.90;;
45254;SDS011;30989;52.078;21.014;2022-12-07T12:07:27;18.08;;;8.95;;
45254;SDS011;30989;52.078;21.014;2022-12-07T12:09:54;16.50;;;9.23;;
45254;SDS011;30989;52.078;21.014;2022-12-07T12:15:18;15.20;;;7.63;;
45254;SDS011;30989;52.078;21.014;2022-12-07T12:20:51;19.67;;;9.25;;
45254;SDS011;30989;52.078;21.014;2022-12-07T12:23:22;17.30;;;8.15;;
45254;SDS011;30989;52.078;21.014;2022-12-07T12:25:58;18.92;;;9.10;;
45254;SDS011;30989;52.078;21.014;2022-12-07T12:28:31;16.77;;;8.38;;
45254;SDS011;30989;52.078;21.014;2022-12-07T12:33:31;18.83;;;8.88;;
45254;SDS011;30989;52.078;21.014;2022-12-07T12:36:17;16.88;;;9.35;;
45254;SDS011;30989;52.078;21.014;2022-12-07T12:39:09;25.92;;;8.65;;
45254;SDS011;30989;52.078;21.014;2022-12-07T12:54:24;13.07;;;6.82;;
45254;SDS011;30989;52.078;21.014;2022-12-07T12:56:56;13.73;;;6.28;;
45254;SDS011;30989;52.078;21.014;2022-12-07T12:59:33;11.00;;;5.10;;
45254;SDS011;30989;52.078;21.014;2022-12-07T13:02:15;13.60;;;6.97;;
45254;SDS011;30989;52.078;21.014;2022-12-07T13:15:43;13.50;;;7.55;;
45254;SDS011;30989;52.078;21.014;2022-12-07T13:20:58;16.00;;;8.40;;
45254;SDS011;30989;52.078;21.014;2022-12-07T13:31:39;12.23;;;6.15;;
45254;SDS011;30989;52.078;21.014;2022-12-07T13:34:27;10.93;;;5.95;;
45254;SDS011;30989;52.078;21.014;2022-12-07T13:36:57;11.18;;;6.00;;
45254;SDS011;30989;52.078;21.014;2022-12-07T13:39:24;12.75;;;6.35;;
45254;SDS011;30989;52.078;21.014;2022-12-07T13:42:06;14.85;;;7.50;;
45254;SDS011;30989;52.078;21.014;2022-12-07T13:44:40;17.70;;;8.43;;
45254;SDS011;30989;52.078;21.014;2022-12-07T13:47:09;22.17;;;10.40;;
45254;SDS011;30989;52.078;21.014;2022-12-07T13:49:49;19.08;;;10.15;;
45254;SDS011;30989;52.078;21.014;2022-12-07T13:52:21;15.23;;;8.35;;
45254;SDS011;30989;52.078;21.014;2022-12-07T13:54:54;15.35;;;8.00;;
45254;SDS011;30989;52.078;21.014;2022-12-07T13:57:20;9.75;;;5.15;;
45254;SDS011;30989;52.078;21.014;2022-12-07T13:59:47;15.13;;;7.22;;
45254;SDS011;30989;52.078;21.014;2022-12-07T14:02:24;13.60;;;7.55;;
45254;SDS011;30989;52.078;21.014;2022-12-07T14:05:07;15.43;;;9.13;;
45254;SDS011;30989;52.078;21.014;2022-12-07T14:10:34;13.23;;;6.57;;
45254;SDS011;30989;52.078;21.014;2022-12-07T14:13:03;12.68;;;7.50;;
45254;SDS011;30989;52.078;21.014;2022-12-07T14:15:49;14.45;;;8.02;;
45254;SDS011;30989;52.078;21.014;2022-12-07T14:18:29;14.20;;;7.78;;
45254;SDS011;30989;52.078;21.014;2022-12-07T14:21:05;15.57;;;7.60;;
45254;SDS011;30989;52.078;21.014;2022-12-07T14:23:31;16.70;;;9.35;;
45254;SDS011;30989;52.078;21.014;2022-12-07T14:28:44;13.48;;;7.00;;
45254;SDS011;30989;52.078;21.014;2022-12-07T14:31:16;13.13;;;6.90;;
45254;SDS011;30989;52.078;21.014;2022-12-07T14:33:43;16.77;;;8.80;;
45254;SDS011;30989;52.078;21.014;2022-12-07T14:36:09;15.63;;;7.95;;
45254;SDS011;30989;52.078;21.014;2022-12-07T14:38:36;16.55;;;7.70;;
45254;SDS011;30989;52.078;21.014;2022-12-07T14:41:01;18.88;;;9.27;;
45254;SDS011;30989;52.078;21.014;2022-12-07T14:43:47;10.88;;;6.53;;
45254;SDS011;30989;52.078;21.014;2022-12-07T14:46:13;14.43;;;7.22;;
45254;SDS011;30989;52.078;21.014;2022-12-07T14:48:39;15.13;;;8.18;;
45254;SDS011;30989;52.078;21.014;2022-12-07T14:51:04;15.98;;;8.48;;
45254;SDS011;30989;52.078;21.014;2022-12-07T14:56:04;18.20;;;8.50;;
45254;SDS011;30989;52.078;21.014;2022-12-07T14:58:31;25.23;;;11.05;;
45254;SDS011;30989;52.078;21.014;2022-12-07T15:00:57;18.15;;;8.18;;
45254;SDS011;30989;52.078;21.014;2022-12-07T15:03:23;15.07;;;8.38;;
45254;SDS011;30989;52.078;21.014;2022-12-07T15:05:48;14.77;;;8.18;;
45254;SDS011;30989;52.078;21.014;2022-12-07T15:08:14;19.15;;;9.38;;
45254;SDS011;30989;52.078;21.014;2022-12-07T15:10:39;17.25;;;8.85;;
45254;SDS011;30989;52.078;21.014;2022-12-07T15:13:05;18.42;;;9.68;;
45254;SDS011;30989;52.078;21.014;2022-12-07T15:15:51;16.90;;;9.48;;
45254;SDS011;30989;52.078;21.014;2022-12-07T15:18:18;20.77;;;10.57;;
45254;SDS011;30989;52.078;21.014;2022-12-07T15:20:47;25.10;;;10.82;;
45254;SDS011;30989;52.078;21.014;2022-12-07T15:23:13;21.33;;;11.95;;
45254;SDS011;30989;52.078;21.014;2022-12-07T15:25:43;40.05;;;17.33;;
45254;SDS011;30989;52.078;21.014;2022-12-07T15:28:09;20.35;;;10.07;;
45254;SDS011;30989;52.078;21.014;2022-12-07T15:30:36;17.48;;;9.68;;
45254;SDS011;30989;52.078;21.014;2022-12-07T15:33:03;17.42;;;8.18;;
45254;SDS011;30989;52.078;21.014;2022-12-07T15:35:28;16.77;;;8.65;;
45254;SDS011;30989;52.078;21.014;2022-12-07T15:37:54;17.50;;;8.68;;
45254;SDS011;30989;52.078;21.014;2022-12-07T15:40:19;19.25;;;9.93;;
45254;SDS011;30989;52.078;21.014;2022-12-07T15:42:45;17.70;;;8.88;;
45254;SDS011;30989;52.078;21.014;2022-12-07T15:45:10;20.08;;;9.77;;
45254;SDS011;30989;52.078;21.014;2022-12-07T15:47:37;21.45;;;10.48;;
45254;SDS011;30989;52.078;21.014;2022-12-07T15:50:06;17.35;;;9.63;;
45254;SDS011;30989;52.078;21.014;2022-12-07T15:52:35;17.42;;;9.85;;
45254;SDS011;30989;52.078;21.014;2022-12-07T15:55:01;18.63;;;8.93;;
45254;SDS011;30989;52.078;21.014;2022-12-07T15:57:28;22.95;;;11.30;;
45254;SDS011;30989;52.078;21.014;2022-12-07T15:59:54;23.23;;;10.68;;
45254;SDS011;30989;52.078;21.014;2022-12-07T16:02:20;18.50;;;9.43;;
45254;SDS011;30989;52.078;21.014;2022-12-07T16:04:47;17.35;;;8.98;;
45254;SDS011;30989;52.078;21.014;2022-12-07T16:07:13;20.05;;;9.63;;
45254;SDS011;30989;52.078;21.014;2022-12-07T16:09:41;18.52;;;10.18;;
45254;SDS011;30989;52.078;21.014;2022-12-07T16:12:07;22.15;;;10.85;;
45254;SDS011;30989;52.078;21.014;2022-12-07T16:14:33;23.92;;;11.60;;
45254;SDS011;30989;52.078;21.014;2022-12-07T16:16:59;21.23;;;10.68;;
45254;SDS011;30989;52.078;21.014;2022-12-07T16:19:24;20.83;;;10.50;;
45254;SDS011;30989;52.078;21.014;2022-12-07T16:21:50;24.60;;;11.90;;
45254;SDS011;30989;52.078;21.014;2022-12-07T16:24:15;22.42;;;10.90;;
45254;SDS011;30989;52.078;21.014;2022-12-07T16:26:41;23.42;;;10.95;;
45254;SDS011;30989;52.078;21.014;2022-12-07T16:29:07;22.33;;;11.23;;
45254;SDS011;30989;52.078;21.014;2022-12-07T16:31:35;24.20;;;10.50;;
45254;SDS011;30989;52.078;21.014;2022-12-07T16:34:01;24.58;;;11.40;;
45254;SDS011;30989;52.078;21.014;2022-12-07T16:36:26;22.40;;;11.32;;
45254;SDS011;30989;52.078;21.014;2022-12-07T16:38:52;25.27;;;12.77;;
45254;SDS011;30989;52.078;21.014;2022-12-07T16:41:18;29.90;;;13.60;;
45254;SDS011;30989;52.078;21.014;2022-12-07T16:43:43;23.77;;;13.50;;
45254;SDS011;30989;52.078;21.014;2022-12-07T16:46:09;24.95;;;11.02;;
45254;SDS011;30989;52.078;21.014;2022-12-07T16:48:38;21.90;;;9.95;;
45254;SDS011;30989;52.078;21.014;2022-12-07T16:51:06;20.98;;;10.50;;
45254;SDS011;30989;52.078;21.014;2022-12-07T16:53:36;22.13;;;10.13;;